Gode, Ethiopia
Current Conditions -  °F | °C
As of 12:55 PM on Friday 19 Dec 2014 (Local Time) from KQRH Reporting Station
Clear Clear  
Wind Chill: 85°   Ceiling: Unl
Heat Index: 86°   Visibility: 6mi
Dew Point: 64°   Wind: 8mph
Humidity: 49%   Direction: 80°E
Pressure: 30.07"   Gusts: 17mph
Location:  5.9°N, 43.57°E
Report Text: KQRH 190955Z AUTO 08007G15KT 050V120 9999 CLR 29/18 A3007 RMK AO2 SLP180 T02940176 $
Loading
Personal Weather Stations






























Interactive Weather Map New forecast layout! Learn more

10-Day Weather Forecast

Advertisements
Track Severe Weather on mobile